createdAt,value
2019-02-20T00:00:43.879Z,0
2019-02-20T00:01:43.866Z,0
2019-02-20T00:02:43.861Z,0
2019-02-20T00:03:43.873Z,0
2019-02-20T00:04:43.881Z,0
2019-02-20T00:05:43.817Z,0
2019-02-20T00:06:43.824Z,0
2019-02-20T00:07:44.050Z,0
2019-02-20T00:08:43.781Z,0
2019-02-20T00:09:43.780Z,0
2019-02-20T00:10:43.781Z,0
2019-02-20T00:11:43.503Z,0
2019-02-20T00:12:43.769Z,0
2019-02-20T00:13:43.721Z,0
2019-02-20T00:14:43.703Z,0
2019-02-20T00:15:43.451Z,0
2019-02-20T00:16:43.677Z,0
2019-02-20T00:17:43.681Z,0
2019-02-20T00:18:43.654Z,0
2019-02-20T00:19:43.714Z,0
2019-02-20T00:20:43.629Z,0
2019-02-20T00:21:43.622Z,0
2019-02-20T00:22:47.538Z,0
2019-02-20T00:23:43.593Z,0
2019-02-20T00:24:43.592Z,0
2019-02-20T00:25:43.568Z,0
2019-02-20T00:26:43.557Z,0
2019-02-20T00:27:43.535Z,0
2019-02-20T00:28:43.570Z,0
2019-02-20T00:29:43.526Z,0
2019-02-20T00:30:43.513Z,0
2019-02-20T00:31:43.503Z,0
2019-02-20T00:32:43.498Z,0
2019-02-20T00:33:43.481Z,0
2019-02-20T00:34:43.476Z,0
2019-02-20T00:35:43.443Z,0
2019-02-20T00:36:43.459Z,0
2019-02-20T00:37:43.418Z,0
2019-02-20T00:38:43.662Z,0
2019-02-20T00:39:43.410Z,0
2019-02-20T00:40:43.389Z,0
2019-02-20T00:41:43.368Z,0
2019-02-20T00:42:43.374Z,0
2019-02-20T00:43:43.357Z,0
2019-02-20T00:44:43.331Z,0
2019-02-20T00:45:43.321Z,0
2019-02-20T00:46:43.074Z,0
2019-02-20T00:47:43.299Z,0
2019-02-20T00:48:43.282Z,0
2019-02-20T00:49:43.281Z,0
2019-02-20T00:50:43.284Z,0
2019-02-20T00:51:43.243Z,0
2019-02-20T00:52:51.957Z,0
2019-02-20T00:53:43.246Z,0
2019-02-20T00:54:43.229Z,0
2019-02-20T00:55:43.197Z,0
2019-02-20T00:56:43.190Z,0
2019-02-20T00:57:43.180Z,0
2019-02-20T00:58:43.189Z,0
2019-02-20T00:59:43.168Z,0
2019-02-20T01:00:43.159Z,0
2019-02-20T01:01:43.139Z,0
2019-02-20T01:02:43.127Z,0
2019-02-20T01:03:43.099Z,0
2019-02-20T01:04:43.092Z,0
2019-02-20T01:05:43.087Z,0
2019-02-20T01:06:45.242Z,0
2019-02-20T01:07:43.071Z,0
2019-02-20T01:08:43.048Z,0
2019-02-20T01:09:43.029Z,0
2019-02-20T01:10:43.022Z,0
2019-02-20T01:11:43.021Z,0
2019-02-20T01:12:42.992Z,0
2019-02-20T01:13:42.976Z,0
2019-02-20T01:14:42.973Z,0
2019-02-20T01:15:42.964Z,0
2019-02-20T01:16:42.948Z,0
2019-02-20T01:17:42.929Z,0
2019-02-20T01:18:42.916Z,0
2019-02-20T01:19:42.903Z,0
2019-02-20T01:20:42.894Z,0
2019-02-20T01:21:42.893Z,0
2019-02-20T01:22:42.876Z,0
2019-02-20T01:23:42.852Z,0
2019-02-20T01:24:42.841Z,0
2019-02-20T01:25:42.833Z,0
2019-02-20T01:26:42.820Z,0
2019-02-20T01:27:43.028Z,0
2019-02-20T01:28:42.843Z,0
2019-02-20T01:29:42.800Z,0
2019-02-20T01:30:42.788Z,0
2019-02-20T01:31:42.779Z,0
2019-02-20T01:32:42.745Z,0
2019-02-20T01:33:42.728Z,0
2019-02-20T01:34:42.718Z,0
2019-02-20T01:35:42.736Z,0
2019-02-20T01:36:42.691Z,0
2019-02-20T01:37:42.690Z,0
2019-02-20T01:38:42.689Z,0
2019-02-20T01:39:42.656Z,0
2019-02-20T01:40:42.659Z,0
2019-02-20T01:41:42.936Z,0
2019-02-20T01:42:42.673Z,0
2019-02-20T01:43:42.608Z,0
2019-02-20T01:44:42.592Z,0
2019-02-20T01:45:42.590Z,0
2019-02-20T01:46:42.581Z,0
2019-02-20T01:47:42.574Z,0
2019-02-20T01:48:42.545Z,0
2019-02-20T01:49:42.537Z,0
2019-02-20T01:50:42.522Z,0
2019-02-20T01:51:42.516Z,0
2019-02-20T01:52:42.501Z,0
2019-02-20T01:53:42.487Z,0
2019-02-20T01:54:42.468Z,0
2019-02-20T01:55:42.483Z,0
2019-02-20T01:56:42.449Z,0
2019-02-20T01:57:42.445Z,0
2019-02-20T01:58:42.434Z,0
2019-02-20T01:59:42.420Z,0
2019-02-20T02:00:42.397Z,0
2019-02-20T02:01:42.402Z,0
2019-02-20T02:02:42.373Z,0
2019-02-20T02:03:43.912Z,0
2019-02-20T02:04:42.348Z,0
2019-02-20T02:05:42.342Z,0
2019-02-20T02:06:42.337Z,0
2019-02-20T02:07:42.333Z,0
2019-02-20T02:08:42.301Z,0
2019-02-20T02:09:42.294Z,0
2019-02-20T02:10:42.277Z,0
2019-02-20T02:11:42.262Z,0
2019-02-20T02:12:42.502Z,0
2019-02-20T02:13:42.244Z,0
2019-02-20T02:14:42.222Z,0
2019-02-20T02:15:41.967Z,0
2019-02-20T02:16:42.194Z,0
2019-02-20T02:17:42.188Z,0
2019-02-20T02:18:42.173Z,0
2019-02-20T02:19:42.158Z,0
2019-02-20T02:20:42.151Z,0
2019-02-20T02:21:42.135Z,0
2019-02-20T02:22:42.133Z,0
2019-02-20T02:23:42.115Z,0
2019-02-20T02:24:42.098Z,0
2019-02-20T02:25:42.100Z,0
2019-02-20T02:26:42.095Z,0
2019-02-20T02:27:42.075Z,0
2019-02-20T02:28:42.053Z,0
2019-02-20T02:29:42.055Z,0
2019-02-20T02:30:42.050Z,0
2019-02-20T02:31:42.019Z,0
2019-02-20T02:32:42.000Z,0
2019-02-20T02:33:41.983Z,0
2019-02-20T02:34:41.976Z,0
2019-02-20T02:35:41.957Z,0
2019-02-20T02:36:41.960Z,0
2019-02-20T02:37:41.933Z,0
2019-02-20T02:38:41.969Z,0
2019-02-20T02:39:41.907Z,0
2019-02-20T02:40:41.896Z,0
2019-02-20T02:41:41.894Z,0
2019-02-20T02:42:41.897Z,0
2019-02-20T02:43:42.107Z,0
2019-02-20T02:44:41.867Z,0
2019-02-20T02:45:41.836Z,0
2019-02-20T02:46:41.824Z,0
2019-02-20T02:47:41.822Z,0
2019-02-20T02:48:41.798Z,0
2019-02-20T02:49:41.795Z,0
2019-02-20T02:50:41.780Z,0
2019-02-20T02:51:41.777Z,0
2019-02-20T02:52:41.743Z,0
2019-02-20T02:53:41.764Z,0
2019-02-20T02:54:41.734Z,0
2019-02-20T02:55:41.713Z,0
2019-02-20T02:56:41.701Z,0
2019-02-20T02:57:41.685Z,0
2019-02-20T02:58:41.662Z,0
2019-02-20T02:59:41.659Z,0
2019-02-20T03:00:41.677Z,0
2019-02-20T03:01:41.701Z,0
2019-02-20T03:02:41.636Z,0
2019-02-20T03:03:41.624Z,0
2019-02-20T03:04:41.592Z,0
2019-02-20T03:05:41.577Z,0
2019-02-20T03:06:41.592Z,0
2019-02-20T03:07:41.551Z,0
2019-02-20T03:08:41.544Z,0
2019-02-20T03:09:41.551Z,0
2019-02-20T03:10:41.658Z,0
2019-02-20T03:11:41.532Z,0
2019-02-20T03:12:41.490Z,0
2019-02-20T03:13:41.472Z,0
2019-02-20T03:14:41.720Z,0
2019-02-20T03:15:41.491Z,0
2019-02-20T03:16:41.443Z,0
2019-02-20T03:17:41.447Z,0
2019-02-20T03:18:41.424Z,0
2019-02-20T03:19:41.403Z,0
2019-02-20T03:20:41.378Z,0
2019-02-20T03:21:41.378Z,0
2019-02-20T03:22:41.371Z,0
2019-02-20T03:23:47.501Z,0
2019-02-20T03:24:41.335Z,0
2019-02-20T03:25:41.325Z,0
2019-02-20T03:26:41.320Z,0
2019-02-20T03:27:41.298Z,0
2019-02-20T03:28:42.645Z,0
2019-02-20T03:29:41.268Z,0
2019-02-20T03:30:41.289Z,0
2019-02-20T03:31:41.251Z,0
2019-02-20T03:32:41.301Z,0
2019-02-20T03:33:41.227Z,0
2019-02-20T03:34:41.201Z,0
2019-02-20T03:35:41.199Z,0
2019-02-20T03:36:41.388Z,0
2019-02-20T03:37:41.159Z,0
2019-02-20T03:38:41.159Z,0
2019-02-20T03:39:41.142Z,0
2019-02-20T03:40:41.150Z,0
2019-02-20T03:41:41.123Z,0
2019-02-20T03:42:41.118Z,0
2019-02-20T03:43:41.103Z,0
2019-02-20T03:44:41.112Z,0
2019-02-20T03:45:41.060Z,0
2019-02-20T03:46:41.042Z,0
2019-02-20T03:47:41.035Z,0
2019-02-20T03:48:41.104Z,0
2019-02-20T03:49:41.019Z,0
2019-02-20T03:50:40.989Z,0
2019-02-20T03:51:41.019Z,0
2019-02-20T03:52:40.977Z,0
2019-02-20T03:53:50.762Z,0
2019-02-20T03:54:40.939Z,0
2019-02-20T03:55:40.949Z,0
2019-02-20T03:56:40.926Z,0
2019-02-20T03:57:40.920Z,0
2019-02-20T03:58:40.903Z,0
2019-02-20T03:59:40.880Z,0
2019-02-20T04:00:40.876Z,0
2019-02-20T04:01:40.867Z,0
2019-02-20T04:02:40.833Z,0
2019-02-20T04:03:40.583Z,0
2019-02-20T04:04:40.803Z,0
2019-02-20T04:05:40.787Z,0
2019-02-20T04:06:40.780Z,0
2019-02-20T04:07:40.760Z,0
2019-02-20T04:08:40.774Z,0
2019-02-20T04:09:40.730Z,0
2019-02-20T04:10:40.727Z,0
2019-02-20T04:11:40.704Z,0
2019-02-20T04:12:40.699Z,0
2019-02-20T04:13:40.680Z,0
2019-02-20T04:14:40.673Z,0
2019-02-20T04:15:40.662Z,0
2019-02-20T04:16:40.644Z,0
2019-02-20T04:17:40.881Z,0
2019-02-20T04:18:40.625Z,0
2019-02-20T04:19:40.605Z,0
2019-02-20T04:20:40.583Z,0
2019-02-20T04:21:40.581Z,0
2019-02-20T04:22:40.552Z,0
2019-02-20T04:23:40.621Z,0
2019-02-20T04:24:40.529Z,0
2019-02-20T04:25:40.506Z,0
2019-02-20T04:26:40.310Z,0
2019-02-20T04:27:40.480Z,0
2019-02-20T04:28:40.470Z,0
2019-02-20T04:29:40.452Z,0
2019-02-20T04:30:40.471Z,0
2019-02-20T04:31:40.446Z,0
2019-02-20T04:32:40.417Z,0
2019-02-20T04:33:40.417Z,0
2019-02-20T04:34:40.399Z,0
2019-02-20T04:35:40.374Z,0
2019-02-20T04:36:40.357Z,0
2019-02-20T04:37:40.347Z,0
2019-02-20T04:38:40.328Z,0
2019-02-20T04:39:40.080Z,0
2019-02-20T04:40:40.070Z,0
2019-02-20T04:41:40.278Z,0
2019-02-20T04:42:40.274Z,0
2019-02-20T04:43:40.260Z,0
2019-02-20T04:44:40.242Z,0
2019-02-20T04:45:40.235Z,0
2019-02-20T04:46:40.234Z,0
2019-02-20T04:47:40.210Z,0
2019-02-20T04:48:40.436Z,0
2019-02-20T04:49:40.169Z,0
2019-02-20T04:50:40.150Z,0
2019-02-20T04:51:40.158Z,0
2019-02-20T04:52:40.144Z,0
2019-02-20T04:53:40.109Z,0
2019-02-20T04:54:40.105Z,0
2019-02-20T04:55:39.840Z,0
2019-02-20T04:56:40.069Z,0
2019-02-20T04:57:40.069Z,0
2019-02-20T04:58:40.040Z,0
2019-02-20T04:59:40.038Z,0
2019-02-20T05:00:40.060Z,0
2019-02-20T05:01:40.004Z,0
2019-02-20T05:02:40.105Z,0
2019-02-20T05:03:39.979Z,0
2019-02-20T05:04:39.969Z,0
2019-02-20T05:05:39.967Z,0
2019-02-20T05:06:39.932Z,0
2019-02-20T05:07:39.923Z,0
2019-02-20T05:08:39.913Z,0
2019-02-20T05:09:42.083Z,0
2019-02-20T05:10:39.884Z,0
2019-02-20T05:11:39.888Z,0
2019-02-20T05:12:39.859Z,0
2019-02-20T05:13:39.857Z,0
2019-02-20T05:14:39.834Z,0
2019-02-20T05:15:39.830Z,0
2019-02-20T05:16:39.824Z,0
2019-02-20T05:17:39.789Z,0
2019-02-20T05:18:39.827Z,0
2019-02-20T05:19:39.785Z,0
2019-02-20T05:20:39.750Z,0
2019-02-20T05:21:39.746Z,0
2019-02-20T05:22:39.719Z,0
2019-02-20T05:23:39.723Z,0
2019-02-20T05:24:39.700Z,0
2019-02-20T05:25:39.686Z,0
2019-02-20T05:26:39.674Z,0
2019-02-20T05:27:39.668Z,0
2019-02-20T05:28:39.640Z,0
2019-02-20T05:29:39.632Z,0
2019-02-20T05:30:39.620Z,0
2019-02-20T05:31:39.602Z,0
2019-02-20T05:32:39.596Z,0
2019-02-20T05:33:39.575Z,0
2019-02-20T05:34:39.583Z,0
2019-02-20T05:35:39.551Z,0
2019-02-20T05:36:39.569Z,0
2019-02-20T05:37:39.736Z,0
2019-02-20T05:38:39.511Z,0
2019-02-20T05:39:39.510Z,4
2019-02-20T05:40:39.482Z,0
2019-02-20T05:41:39.471Z,4
2019-02-20T05:42:39.490Z,0
2019-02-20T05:43:39.453Z,4
2019-02-20T05:44:39.439Z,4
2019-02-20T05:45:39.418Z,8
2019-02-20T05:46:39.172Z,8
2019-02-20T05:47:39.401Z,4
2019-02-20T05:48:39.491Z,4
2019-02-20T05:49:39.374Z,8
2019-02-20T05:50:39.621Z,12
2019-02-20T05:51:39.348Z,12
2019-02-20T05:52:39.333Z,16
2019-02-20T05:53:39.331Z,16
2019-02-20T05:54:42.190Z,24
2019-02-20T05:55:39.329Z,24
2019-02-20T05:56:39.298Z,32
2019-02-20T05:57:41.247Z,40
2019-02-20T05:58:39.278Z,40
2019-02-20T05:59:39.258Z,48
2019-02-20T06:00:39.251Z,60
2019-02-20T06:01:39.223Z,64
2019-02-20T06:02:39.223Z,68
2019-02-20T06:03:39.206Z,72
2019-02-20T06:04:39.182Z,80
2019-02-20T06:05:39.166Z,92
2019-02-20T06:06:39.171Z,104
2019-02-20T06:07:39.161Z,124
2019-02-20T06:08:39.137Z,144
2019-02-20T06:09:39.116Z,160
2019-02-20T06:10:39.116Z,180
2019-02-20T06:11:39.109Z,196
2019-02-20T06:12:39.094Z,216
2019-02-20T06:13:38.858Z,240
2019-02-20T06:14:39.074Z,264
2019-02-20T06:15:39.042Z,296
2019-02-20T06:16:39.031Z,316
2019-02-20T06:17:39.050Z,336
2019-02-20T06:18:39.035Z,348
2019-02-20T06:19:39.011Z,364
2019-02-20T06:20:39.035Z,384
2019-02-20T06:21:38.975Z,416
2019-02-20T06:22:38.957Z,444
2019-02-20T06:23:39.031Z,472
2019-02-20T06:24:48.648Z,500
2019-02-20T06:25:38.967Z,528
2019-02-20T06:26:38.921Z,572
2019-02-20T06:27:38.900Z,632
2019-02-20T06:28:38.927Z,704
2019-02-20T06:29:38.880Z,784
2019-02-20T06:30:38.855Z,860
2019-02-20T06:31:38.610Z,932
2019-02-20T06:32:38.913Z,1020
2019-02-20T06:33:38.827Z,1124
2019-02-20T06:34:38.813Z,1244
2019-02-20T06:35:38.810Z,1372
2019-02-20T06:36:38.546Z,1476
2019-02-20T06:37:38.785Z,1572
2019-02-20T06:38:38.934Z,1716
2019-02-20T06:39:38.766Z,1912
2019-02-20T06:40:38.785Z,2120
2019-02-20T06:41:46.153Z,2368
2019-02-20T06:42:38.715Z,2576
2019-02-20T06:43:38.700Z,2792
2019-02-20T06:44:38.691Z,2976
2019-02-20T06:45:38.707Z,3136
2019-02-20T06:46:38.676Z,3268
2019-02-20T06:47:38.660Z,3420
2019-02-20T06:48:38.655Z,3632
2019-02-20T06:49:38.630Z,3908
2019-02-20T06:50:38.643Z,4200
2019-02-20T06:51:38.620Z,4460
2019-02-20T06:52:38.599Z,4712
2019-02-20T06:53:38.841Z,4964
2019-02-20T06:54:38.575Z,5192
2019-02-20T06:55:38.564Z,5496
2019-02-20T06:56:38.558Z,5480
2019-02-20T06:57:38.537Z,5336
2019-02-20T06:58:38.524Z,5600
2019-02-20T06:59:38.538Z,5220
2019-02-20T07:00:38.503Z,5144
2019-02-20T07:01:38.493Z,5680
2019-02-20T07:02:40.503Z,5644
2019-02-20T07:03:38.470Z,5244
2019-02-20T07:04:38.476Z,5360
2019-02-20T07:05:38.449Z,5468
2019-02-20T07:06:38.448Z,5684
2019-02-20T07:07:38.425Z,6924
2019-02-20T07:08:38.442Z,6512
2019-02-20T07:09:38.419Z,6064
2019-02-20T07:10:38.407Z,5964
2019-02-20T07:11:38.180Z,5856
2019-02-20T07:12:38.375Z,5680
2019-02-20T07:13:38.364Z,5400
2019-02-20T07:14:38.361Z,5296
2019-02-20T07:15:38.354Z,5196
2019-02-20T07:16:38.329Z,5060
2019-02-20T07:17:38.322Z,4772
2019-02-20T07:18:38.324Z,4596
2019-02-20T07:19:38.301Z,4636
2019-02-20T07:20:38.290Z,4712
2019-02-20T07:21:38.281Z,4688
2019-02-20T07:22:38.278Z,4620
2019-02-20T07:23:38.267Z,4536
2019-02-20T07:24:38.505Z,4448
2019-02-20T07:25:38.241Z,4368
2019-02-20T07:26:38.026Z,4368
2019-02-20T07:27:38.220Z,4460
2019-02-20T07:28:38.227Z,4560
2019-02-20T07:29:38.209Z,4652
2019-02-20T07:30:38.191Z,4708
2019-02-20T07:31:38.184Z,4792
2019-02-20T07:32:38.212Z,4908
2019-02-20T07:33:38.258Z,4960
2019-02-20T07:34:38.470Z,5080
2019-02-20T07:35:38.146Z,5304
2019-02-20T07:36:38.171Z,5496
2019-02-20T07:37:38.155Z,5696
2019-02-20T07:38:38.120Z,5984
2019-02-20T07:39:38.100Z,6168
2019-02-20T07:40:38.096Z,6164
2019-02-20T07:41:38.087Z,6164
2019-02-20T07:42:38.073Z,6188
2019-02-20T07:43:38.057Z,5892
2019-02-20T07:44:38.056Z,5856
2019-02-20T07:45:38.046Z,6256
2019-02-20T07:46:38.035Z,6464
2019-02-20T07:47:38.026Z,6372
2019-02-20T07:48:38.009Z,6204
2019-02-20T07:49:38.020Z,6068
2019-02-20T07:50:38.003Z,5916
2019-02-20T07:51:38.002Z,5752
2019-02-20T07:52:37.977Z,5560
2019-02-20T07:53:37.973Z,5512
2019-02-20T07:54:37.997Z,5632
2019-02-20T07:55:37.958Z,5796
2019-02-20T07:56:37.945Z,5988
2019-02-20T07:57:37.923Z,6208
2019-02-20T07:58:38.019Z,6452
2019-02-20T07:59:37.909Z,6780
2019-02-20T08:00:38.033Z,7184
2019-02-20T08:01:37.942Z,7548
2019-02-20T08:02:37.880Z,7872
2019-02-20T08:03:37.876Z,8152
2019-02-20T08:04:37.854Z,8388
2019-02-20T08:05:37.897Z,8600
2019-02-20T08:06:37.883Z,8736
2019-02-20T08:07:37.841Z,8836
2019-02-20T08:08:37.837Z,8980
2019-02-20T08:09:37.814Z,9148
2019-02-20T08:10:37.797Z,9348
2019-02-20T08:11:37.793Z,9532
2019-02-20T08:12:37.787Z,9676
2019-02-20T08:13:46.372Z,9788
2019-02-20T08:14:37.782Z,9792
2019-02-20T08:15:37.753Z,9496
2019-02-20T08:16:37.741Z,9368
2019-02-20T08:17:37.735Z,9304
2019-02-20T08:18:37.731Z,9224
2019-02-20T08:19:37.752Z,9196
2019-02-20T08:20:37.733Z,9280
2019-02-20T08:21:37.697Z,9416
2019-02-20T08:22:37.686Z,9500
2019-02-20T08:23:37.684Z,9504
2019-02-20T08:24:37.667Z,9364
2019-02-20T08:25:37.666Z,9204
2019-02-20T08:26:37.929Z,9048
2019-02-20T08:27:37.698Z,8892
2019-02-20T08:28:37.402Z,8788
2019-02-20T08:29:37.631Z,8668
2019-02-20T08:30:37.625Z,8520
2019-02-20T08:31:37.367Z,8420
2019-02-20T08:32:37.615Z,8296
2019-02-20T08:33:37.598Z,8000
2019-02-20T08:34:37.591Z,7576
2019-02-20T08:35:37.599Z,7008
2019-02-20T08:36:37.564Z,6524
2019-02-20T08:37:37.557Z,6352
2019-02-20T08:38:37.553Z,6504
2019-02-20T08:39:37.547Z,6964
2019-02-20T08:40:37.582Z,7644
2019-02-20T08:41:37.521Z,8344
2019-02-20T08:42:37.581Z,8660
2019-02-20T08:43:37.512Z,9244
2019-02-20T08:44:37.516Z,10192
2019-02-20T08:45:37.487Z,11212
2019-02-20T08:46:37.494Z,11688
2019-02-20T08:47:37.482Z,11800
2019-02-20T08:48:37.514Z,11688
2019-02-20T08:49:37.478Z,11368
2019-02-20T08:50:37.437Z,11252
2019-02-20T08:51:37.440Z,11092
2019-02-20T08:52:37.421Z,11056
2019-02-20T08:53:37.180Z,11248
2019-02-20T08:54:37.423Z,11564
2019-02-20T08:55:39.511Z,12108
2019-02-20T08:56:37.498Z,12124
2019-02-20T08:57:37.393Z,11932
2019-02-20T08:58:37.367Z,11644
2019-02-20T08:59:37.361Z,11260
2019-02-20T09:00:37.362Z,10844
2019-02-20T09:01:37.384Z,10932
2019-02-20T09:02:37.382Z,11376
2019-02-20T09:03:37.389Z,11680
2019-02-20T09:04:37.368Z,11928
2019-02-20T09:05:39.020Z,11952
2019-02-20T09:06:37.309Z,11792
2019-02-20T09:07:37.297Z,11576
2019-02-20T09:08:37.328Z,11828
2019-02-20T09:09:37.291Z,11816
2019-02-20T09:10:37.267Z,11572
2019-02-20T09:11:37.266Z,11324
2019-02-20T09:12:37.254Z,11240
2019-02-20T09:13:37.268Z,11252
2019-02-20T09:14:37.245Z,11388
2019-02-20T09:15:37.226Z,11644
2019-02-20T09:16:37.290Z,11884
2019-02-20T09:17:38.376Z,12104
2019-02-20T09:18:37.218Z,12132
2019-02-20T09:19:37.200Z,12160
2019-02-20T09:20:37.194Z,12092
2019-02-20T09:21:37.194Z,11700
2019-02-20T09:22:37.176Z,11044
2019-02-20T09:23:37.177Z,10600
2019-02-20T09:24:37.162Z,10380
2019-02-20T09:25:46.004Z,10312
2019-02-20T09:26:37.158Z,9876
2019-02-20T09:27:37.152Z,9484
2019-02-20T09:28:37.234Z,9224
2019-02-20T09:29:37.377Z,9104
2019-02-20T09:30:37.516Z,9208
2019-02-20T09:31:37.107Z,9724
2019-02-20T09:32:37.116Z,10528
2019-02-20T09:33:37.110Z,10976
2019-02-20T09:34:37.107Z,10564
2019-02-20T09:35:37.083Z,10340
2019-02-20T09:36:37.071Z,10532
2019-02-20T09:37:37.063Z,10852
2019-02-20T09:38:37.061Z,11264
2019-02-20T09:39:37.359Z,11420
2019-02-20T09:40:38.964Z,11248
2019-02-20T09:41:37.035Z,11612
2019-02-20T09:42:37.027Z,12244
2019-02-20T09:43:37.016Z,12256
2019-02-20T09:44:37.017Z,11932
2019-02-20T09:45:47.002Z,11476
2019-02-20T09:46:36.997Z,11208
2019-02-20T09:47:36.994Z,11252
2019-02-20T09:48:36.993Z,11688
2019-02-20T09:49:36.971Z,12360
2019-02-20T09:50:36.966Z,13296
2019-02-20T09:51:36.961Z,13984
2019-02-20T09:52:36.953Z,13704
2019-02-20T09:53:36.947Z,13136
2019-02-20T09:54:36.942Z,12772
2019-02-20T09:55:36.933Z,12392
2019-02-20T09:56:36.923Z,12356
2019-02-20T09:57:36.932Z,12900
2019-02-20T09:58:36.906Z,13224
2019-02-20T09:59:36.912Z,13168
2019-02-20T10:00:37.149Z,12872
2019-02-20T10:01:36.979Z,12648
2019-02-20T10:02:36.881Z,12808
2019-02-20T10:03:36.890Z,12764
2019-02-20T10:04:36.874Z,12340
2019-02-20T10:05:36.856Z,11892
2019-02-20T10:06:36.854Z,12056
2019-02-20T10:07:36.860Z,11732
2019-02-20T10:08:36.838Z,11360
2019-02-20T10:09:36.838Z,11404
2019-02-20T10:10:36.848Z,11500
2019-02-20T10:11:36.824Z,11780
2019-02-20T10:12:36.809Z,12144
2019-02-20T10:13:36.816Z,12548
2019-02-20T10:14:36.802Z,13080
2019-02-20T10:15:36.801Z,12716
2019-02-20T10:16:36.782Z,12352
2019-02-20T10:17:36.780Z,12160
2019-02-20T10:18:36.769Z,12208
2019-02-20T10:19:36.780Z,12288
2019-02-20T10:20:36.757Z,12432
2019-02-20T10:21:36.761Z,12788
2019-02-20T10:22:36.765Z,13144
2019-02-20T10:23:36.733Z,13520
2019-02-20T10:24:36.752Z,13608
2019-02-20T10:25:36.732Z,13188
2019-02-20T10:26:38.161Z,11692
2019-02-20T10:27:36.708Z,11792
2019-02-20T10:28:36.709Z,12512
2019-02-20T10:29:36.703Z,12972
2019-02-20T10:30:36.721Z,13064
2019-02-20T10:31:36.969Z,12952
2019-02-20T10:32:36.694Z,12856
2019-02-20T10:33:36.671Z,12792
2019-02-20T10:34:36.665Z,12372
2019-02-20T10:35:36.662Z,12016
2019-02-20T10:36:36.650Z,12992
2019-02-20T10:37:36.647Z,13168
2019-02-20T10:38:36.637Z,13092
2019-02-20T10:39:36.629Z,13168
2019-02-20T10:40:36.651Z,13160
2019-02-20T10:41:36.620Z,13100
2019-02-20T10:42:36.613Z,13112
2019-02-20T10:43:36.607Z,12996
2019-02-20T10:44:36.599Z,12720
2019-02-20T10:45:36.596Z,12676
2019-02-20T10:46:36.585Z,12996
2019-02-20T10:47:36.609Z,13748
2019-02-20T10:48:36.577Z,14440
2019-02-20T10:49:36.576Z,14204
2019-02-20T10:50:36.559Z,12720
2019-02-20T10:51:36.573Z,11288
2019-02-20T10:52:36.612Z,10820
2019-02-20T10:53:36.545Z,10568
2019-02-20T10:54:36.539Z,10632
2019-02-20T10:55:36.534Z,10880
2019-02-20T10:56:36.521Z,11156
2019-02-20T10:57:36.520Z,11144
2019-02-20T10:58:36.511Z,11324
2019-02-20T10:59:36.503Z,11296
2019-02-20T11:00:36.500Z,11072
2019-02-20T11:01:36.495Z,10772
2019-02-20T11:02:36.732Z,10736
2019-02-20T11:03:36.487Z,10872
2019-02-20T11:04:37.762Z,10780
2019-02-20T11:05:38.111Z,10540
2019-02-20T11:06:36.490Z,10168
2019-02-20T11:07:36.458Z,9984
2019-02-20T11:08:37.595Z,9884
2019-02-20T11:09:36.701Z,9848
2019-02-20T11:10:36.196Z,9764
2019-02-20T11:11:36.430Z,9460
2019-02-20T11:12:36.419Z,9144
2019-02-20T11:13:36.417Z,8680
2019-02-20T11:14:37.714Z,8372
2019-02-20T11:15:36.399Z,8020
2019-02-20T11:16:37.828Z,7708
2019-02-20T11:17:37.164Z,7400
2019-02-20T11:18:36.383Z,7280
2019-02-20T11:19:36.373Z,7392
2019-02-20T11:20:36.385Z,7696
2019-02-20T11:21:36.367Z,8136
2019-02-20T11:22:36.895Z,8348
2019-02-20T11:23:36.354Z,8220
2019-02-20T11:24:36.345Z,7924
2019-02-20T11:25:38.095Z,7640
2019-02-20T11:26:54.197Z,7284
2019-02-20T11:27:36.318Z,6932
2019-02-20T11:28:36.315Z,6664
2019-02-20T11:29:36.312Z,6664
2019-02-20T11:30:36.304Z,6832
2019-02-20T11:31:36.289Z,6836
2019-02-20T11:32:36.284Z,6684
2019-02-20T11:33:37.648Z,6520
2019-02-20T11:34:36.274Z,6440
2019-02-20T11:35:36.263Z,6292
2019-02-20T11:36:36.254Z,6152
2019-02-20T11:37:36.255Z,6108
2019-02-20T11:38:38.055Z,5928
2019-02-20T11:39:44.579Z,5916
2019-02-20T11:40:36.229Z,5736
2019-02-20T11:41:36.219Z,5764
2019-02-20T11:42:36.223Z,5808
2019-02-20T11:43:36.216Z,5916
2019-02-20T11:44:36.210Z,6028
2019-02-20T11:45:36.193Z,6340
2019-02-20T11:46:36.186Z,8176
2019-02-20T11:47:36.180Z,9732
2019-02-20T11:48:36.169Z,8768
2019-02-20T11:49:36.172Z,7264
2019-02-20T11:50:36.167Z,8044
2019-02-20T11:51:36.149Z,10228
2019-02-20T11:52:43.043Z,10660
2019-02-20T11:53:44.051Z,11036
2019-02-20T11:54:36.124Z,10176
2019-02-20T11:55:36.113Z,9228
2019-02-20T11:56:36.110Z,9512
2019-02-20T11:57:36.104Z,10048
2019-02-20T11:58:36.095Z,10256
2019-02-20T11:59:36.081Z,10328
2019-02-20T12:00:36.082Z,9848
2019-02-20T12:01:36.076Z,9100
2019-02-20T12:02:44.690Z,9212
2019-02-20T12:03:36.056Z,9648
2019-02-20T12:04:36.047Z,10336
2019-02-20T12:05:36.042Z,11656
2019-02-20T12:06:36.040Z,10880
2019-02-20T12:07:36.029Z,10636
2019-02-20T12:08:36.020Z,10972
2019-02-20T12:09:36.010Z,10560
2019-02-20T12:10:36.680Z,9008
2019-02-20T12:11:35.996Z,7912
2019-02-20T12:12:35.987Z,7536
2019-02-20T12:13:35.989Z,7468
2019-02-20T12:14:35.983Z,7816
2019-02-20T12:15:36.208Z,8144
2019-02-20T12:16:35.960Z,8724
2019-02-20T12:17:35.957Z,9344
2019-02-20T12:18:35.956Z,9636
2019-02-20T12:19:35.958Z,9536
2019-02-20T12:20:36.238Z,9228
2019-02-20T12:21:35.931Z,9704
2019-02-20T12:22:35.919Z,10268
2019-02-20T12:23:43.766Z,10388
2019-02-20T12:24:37.592Z,10060
2019-02-20T12:25:35.905Z,9880
2019-02-20T12:26:42.093Z,10188
2019-02-20T12:27:37.848Z,10260
2019-02-20T12:28:35.878Z,10440
2019-02-20T12:29:36.964Z,10384
2019-02-20T12:30:35.880Z,10776
2019-02-20T12:31:35.863Z,10796
2019-02-20T12:32:35.880Z,10696
2019-02-20T12:33:35.852Z,10260
2019-02-20T12:34:35.843Z,9576
2019-02-20T12:35:35.845Z,8404
2019-02-20T12:36:36.381Z,7564
2019-02-20T12:37:35.825Z,6748
2019-02-20T12:38:37.145Z,6096
2019-02-20T12:39:35.809Z,6272
2019-02-20T12:40:37.386Z,6592
2019-02-20T12:41:37.413Z,6312
2019-02-20T12:42:35.797Z,5988
2019-02-20T12:43:35.780Z,5880
2019-02-20T12:44:35.774Z,5780
2019-02-20T12:45:35.788Z,5640
2019-02-20T12:46:35.770Z,5672
2019-02-20T12:47:35.757Z,5368
2019-02-20T12:48:35.802Z,5088
2019-02-20T12:49:35.743Z,5116
2019-02-20T12:50:35.510Z,5280
2019-02-20T12:51:35.731Z,5288
2019-02-20T12:52:35.726Z,5448
2019-02-20T12:53:35.719Z,5656
2019-02-20T12:54:35.713Z,5884
2019-02-20T12:55:35.700Z,6512
2019-02-20T12:56:43.403Z,7716
2019-02-20T12:57:35.684Z,9552
2019-02-20T12:58:35.682Z,10848
2019-02-20T12:59:36.785Z,11080
2019-02-20T13:00:35.669Z,10884
2019-02-20T13:01:35.658Z,9912
2019-02-20T13:02:36.134Z,9060
2019-02-20T13:03:35.643Z,8556
2019-02-20T13:04:35.639Z,7812
2019-02-20T13:05:35.629Z,6864
2019-02-20T13:06:36.970Z,6852
2019-02-20T13:07:37.895Z,7216
2019-02-20T13:08:35.608Z,7596
2019-02-20T13:09:35.595Z,6968
2019-02-20T13:10:35.596Z,5704
2019-02-20T13:11:35.339Z,4752
2019-02-20T13:12:37.553Z,4528
2019-02-20T13:13:35.577Z,5468
2019-02-20T13:14:35.569Z,7120
2019-02-20T13:15:35.559Z,7412
2019-02-20T13:16:35.557Z,6996
2019-02-20T13:17:35.595Z,6292
2019-02-20T13:18:35.544Z,5808
2019-02-20T13:19:35.532Z,5516
2019-02-20T13:20:35.526Z,5612
2019-02-20T13:21:35.515Z,5592
2019-02-20T13:22:35.518Z,5444
2019-02-20T13:23:35.508Z,5288
2019-02-20T13:24:35.516Z,5136
2019-02-20T13:25:35.492Z,4984
2019-02-20T13:26:35.483Z,5248
2019-02-20T13:27:35.478Z,6080
2019-02-20T13:28:35.472Z,7012
2019-02-20T13:29:35.466Z,7780
2019-02-20T13:30:35.227Z,8112
2019-02-20T13:31:35.443Z,8196
2019-02-20T13:32:35.443Z,7308
2019-02-20T13:33:35.430Z,7492
2019-02-20T13:34:35.423Z,8372
2019-02-20T13:35:35.421Z,9012
2019-02-20T13:36:35.176Z,9028
2019-02-20T13:37:35.448Z,9000
2019-02-20T13:38:35.652Z,8900
2019-02-20T13:39:35.425Z,8700
2019-02-20T13:40:35.417Z,8704
2019-02-20T13:41:35.400Z,8484
2019-02-20T13:42:36.863Z,7968
2019-02-20T13:43:35.408Z,6856
2019-02-20T13:44:35.641Z,6228
2019-02-20T13:45:35.724Z,6004
2019-02-20T13:46:35.367Z,6460
2019-02-20T13:47:35.379Z,6816
2019-02-20T13:48:37.308Z,7072
2019-02-20T13:49:35.339Z,7320